Time;durP1;ratioP1;P1;durP2;ratioP2;P2;SDS_P1;SDS_P2;PMS_P1;PMS_P2;Temp;Humidity;BMP_temperature;BMP_pressure;BME280_temperature;BME280_humidity;BME280_pressure;Samples;Min_cycle;Max_cycle;Signal;HPM_P1;HPM_P2
2023/05/19 00:01:08;;;;;;;11.02;3.47;;;10.30;99.90;;;;;;5113961;28;20039;-86
2023/05/19 00:03:39;;;;;;;12.80;3.80;;;10.30;99.90;;;;;;5114070;28;20043;-87
2023/05/19 00:06:09;;;;;;;8.48;3.00;;;10.30;99.90;;;;;;5114324;28;20031;-86
2023/05/19 00:08:37;;;;;;;11.45;3.03;;;10.20;99.90;;;;;;5114332;28;20472;-87
2023/05/19 00:11:03;;;;;;;8.57;3.10;;;10.20;99.90;;;;;;5113681;28;20403;-86
2023/05/19 00:13:29;;;;;;;9.30;3.00;;;10.10;99.90;;;;;;5113852;28;20043;-86
2023/05/19 00:15:55;;;;;;;11.48;3.42;;;10.10;99.90;;;;;;5113906;28;20040;-87
2023/05/19 00:18:21;;;;;;;12.75;3.97;;;10.00;99.90;;;;;;5113640;28;20520;-86
2023/05/19 00:20:48;;;;;;;16.08;3.75;;;10.00;99.90;;;;;;5095082;28;20449;-87
2023/05/19 00:23:14;;;;;;;14.75;3.85;;;10.00;99.90;;;;;;5113821;28;20127;-86
2023/05/19 00:25:40;;;;;;;11.35;3.25;;;10.00;99.90;;;;;;5113815;28;20074;-87
2023/05/19 00:28:05;;;;;;;12.07;3.45;;;10.00;99.90;;;;;;5113623;28;20489;-86
2023/05/19 00:30:31;;;;;;;8.90;3.58;;;9.90;99.90;;;;;;5095146;28;20083;-86
2023/05/19 00:32:57;;;;;;;10.48;3.75;;;10.00;99.90;;;;;;5113407;28;20048;-87
2023/05/19 00:35:23;;;;;;;8.90;3.50;;;10.00;99.90;;;;;;5095332;28;20119;-87
2023/05/19 00:37:48;;;;;;;12.70;3.72;;;9.90;99.90;;;;;;5113406;28;20050;-86
2023/05/19 00:40:15;;;;;;;11.32;4.03;;;9.90;99.90;;;;;;5113036;28;20039;-86
2023/05/19 00:42:41;;;;;;;10.05;3.67;;;9.90;99.90;;;;;;5095123;28;20036;-86
2023/05/19 00:45:07;;;;;;;9.98;3.60;;;9.90;99.90;;;;;;5113236;28;20043;-87
2023/05/19 00:47:33;;;;;;;12.10;4.13;;;9.90;99.90;;;;;;5113074;28;20095;-86
2023/05/19 00:49:58;;;;;;;11.25;4.03;;;9.80;99.90;;;;;;5113039;28;20039;-86
2023/05/19 00:52:25;;;;;;;9.45;3.92;;;9.80;99.90;;;;;;5113283;28;20039;-86
2023/05/19 00:54:52;;;;;;;11.15;4.07;;;9.80;99.90;;;;;;5094968;28;20035;-86
2023/05/19 00:57:19;;;;;;;17.13;4.25;;;9.80;99.90;;;;;;5094501;28;20063;-86
2023/05/19 00:59:46;;;;;;;10.80;3.47;;;9.80;99.90;;;;;;5094543;28;20047;-85
2023/05/19 01:02:12;;;;;;;11.05;3.45;;;9.80;99.90;;;;;;5094872;28;20051;-86
2023/05/19 01:04:40;;;;;;;11.80;4.00;;;9.80;99.90;;;;;;5094611;28;20040;-86
2023/05/19 01:07:06;;;;;;;15.82;4.00;;;9.80;99.90;;;;;;5112906;28;20032;-86
2023/05/19 01:09:32;;;;;;;13.52;4.28;;;9.80;99.90;;;;;;5112261;28;20416;-86
2023/05/19 01:11:59;;;;;;;12.00;3.75;;;9.80;99.90;;;;;;5094396;28;20519;-86
2023/05/19 01:14:25;;;;;;;13.63;3.90;;;9.80;99.90;;;;;;5112791;28;20438;-86
2023/05/19 01:17:04;;;;;;;10.43;3.85;;;9.80;99.90;;;;;;5112919;28;20043;-86
2023/05/19 01:19:42;;;;;;;14.30;3.97;;;9.80;99.90;;;;;;5112249;28;20400;-86
2023/05/19 01:22:11;;;;;;;12.10;3.75;;;9.70;99.90;;;;;;5112652;28;20045;-86
2023/05/19 01:25:22;;;;;;;10.07;3.65;;;9.70;99.90;;;;;;5112504;28;20616;-86
2023/05/19 01:27:56;;;;;;;9.02;3.47;;;9.70;99.90;;;;;;5112607;28;20046;-85
2023/05/19 01:30:35;;;;;;;12.00;3.97;;;9.70;99.90;;;;;;5112354;28;20050;-86
2023/05/19 01:33:05;;;;;;;10.80;3.58;;;9.70;99.90;;;;;;5112674;28;20063;-86
2023/05/19 01:35:33;;;;;;;11.43;3.67;;;9.70;99.90;;;;;;5112525;28;20397;-86
2023/05/19 01:38:00;;;;;;;16.23;8.15;;;9.70;99.90;;;;;;5094138;28;20501;-86
2023/05/19 01:40:27;;;;;;;17.02;4.35;;;9.80;99.90;;;;;;5112118;28;20039;-86
2023/05/19 01:42:54;;;;;;;13.68;4.32;;;9.80;99.90;;;;;;5112335;28;20039;-86
2023/05/19 01:45:20;;;;;;;11.60;4.00;;;9.70;99.90;;;;;;5112235;28;20386;-86
2023/05/19 01:47:49;;;;;;;10.27;4.13;;;9.70;99.90;;;;;;5112149;28;20040;-86
2023/05/19 01:50:15;;;;;;;16.67;4.93;;;9.70;99.90;;;;;;5112192;28;20401;-86
2023/05/19 01:52:41;;;;;;;14.90;4.40;;;9.60;99.90;;;;;;5112328;28;20500;-86
2023/05/19 01:55:07;;;;;;;18.80;4.20;;;9.60;99.90;;;;;;5112315;28;20031;-85
2023/05/19 01:57:42;;;;;;;13.15;3.80;;;9.60;99.90;;;;;;5112118;28;20036;-86
2023/05/19 02:00:17;;;;;;;15.35;4.97;;;9.60;99.90;;;;;;5112022;28;20382;-85
2023/05/19 02:03:07;;;;;;;10.75;4.00;;;9.60;99.90;;;;;;5093915;28;20039;-85
2023/05/19 02:05:35;;;;;;;13.05;4.60;;;9.50;99.90;;;;;;5112040;28;20457;-85
2023/05/19 02:08:21;;;;;;;11.77;4.70;;;9.50;99.90;;;;;;5111886;28;20504;-86
2023/05/19 02:10:54;;;;;;;13.88;4.15;;;9.60;99.90;;;;;;5111797;28;20044;-85
2023/05/19 02:13:24;;;;;;;13.00;4.43;;;9.50;99.90;;;;;;5112162;28;20047;-85
2023/05/19 02:15:51;;;;;;;12.38;4.43;;;9.50;99.90;;;;;;5112149;28;20040;-86
2023/05/19 02:18:19;;;;;;;11.82;4.68;;;9.50;99.90;;;;;;5093695;28;20540;-86
2023/05/19 02:20:44;;;;;;;12.23;4.30;;;9.40;99.90;;;;;;5111581;28;20396;-85
2023/05/19 02:23:10;;;;;;;11.98;4.43;;;9.40;99.90;;;;;;5115984;28;20031;-86
2023/05/19 02:25:35;;;;;;;9.50;4.18;;;9.40;99.90;;;;;;5097792;28;20047;-86
2023/05/19 02:28:01;;;;;;;11.25;3.97;;;9.40;99.90;;;;;;5116002;28;20036;-86
2023/05/19 02:30:26;;;;;;;14.15;4.90;;;9.40;99.90;;;;;;5097689;28;20122;-86
2023/05/19 02:32:53;;;;;;;12.52;4.88;;;9.30;99.90;;;;;;5115746;28;20421;-86
2023/05/19 02:35:19;;;;;;;10.65;4.28;;;9.30;99.90;;;;;;5115984;28;20042;-86
2023/05/19 02:37:45;;;;;;;11.27;4.97;;;9.20;99.90;;;;;;5115917;28;20500;-86
2023/05/19 02:40:10;;;;;;;16.02;4.88;;;9.20;99.90;;;;;;5115531;28;20083;-86
2023/05/19 02:42:36;;;;;;;16.35;4.75;;;9.10;99.90;;;;;;5115758;28;20041;-86
2023/05/19 02:45:02;;;;;;;10.93;4.65;;;9.10;99.90;;;;;;5115717;28;20051;-86
2023/05/19 02:47:27;;;;;;;13.48;4.38;;;9.10;99.90;;;;;;5097276;28;20084;-86
2023/05/19 02:49:53;;;;;;;13.52;4.63;;;9.10;99.90;;;;;;5115420;28;20043;-86
2023/05/19 02:52:18;;;;;;;14.50;5.05;;;9.10;99.90;;;;;;5115656;28;20031;-86
2023/05/19 02:54:44;;;;;;;12.85;4.60;;;9.00;99.90;;;;;;5115495;28;20584;-86
2023/05/19 02:57:10;;;;;;;12.13;4.22;;;9.00;99.90;;;;;;5115341;28;20075;-86
2023/05/19 02:59:36;;;;;;;15.13;4.45;;;9.00;99.90;;;;;;5115078;28;20047;-86
2023/05/19 03:02:01;;;;;;;9.95;3.60;;;8.90;99.90;;;;;;5115219;28;20043;-86
2023/05/19 03:04:28;;;;;;;12.00;4.50;;;8.90;99.90;;;;;;5115449;28;20092;-86
2023/05/19 03:06:54;;;;;;;10.45;4.28;;;8.90;99.90;;;;;;5096991;28;20500;-86
2023/05/19 03:09:20;;;;;;;9.57;4.22;;;8.80;99.90;;;;;;5115104;28;20042;-86
2023/05/19 03:11:45;;;;;;;11.15;4.18;;;8.80;99.90;;;;;;5114821;28;20069;-86
2023/05/19 03:14:12;;;;;;;9.55;4.25;;;8.70;99.90;;;;;;5115087;28;20035;-86
2023/05/19 03:16:39;;;;;;;11.25;3.45;;;8.70;99.90;;;;;;5114983;28;20118;-86
2023/05/19 03:19:05;;;;;;;8.93;3.10;;;8.70;99.90;;;;;;5096744;28;20039;-86
2023/05/19 03:21:31;;;;;;;10.10;4.10;;;8.60;99.90;;;;;;5096683;28;20552;-86
2023/05/19 03:23:57;;;;;;;11.18;4.15;;;8.50;99.90;;;;;;5114970;28;20063;-86
2023/05/19 03:26:23;;;;;;;11.75;4.00;;;8.40;99.90;;;;;;5114682;28;20035;-86
2023/05/19 03:28:48;;;;;;;11.25;4.13;;;8.40;99.90;;;;;;5114763;28;20032;-86
2023/05/19 03:31:15;;;;;;;9.85;3.05;;;8.30;99.90;;;;;;5114408;28;20446;-86
2023/05/19 03:33:40;;;;;;;9.85;3.80;;;8.30;99.90;;;;;;5114723;28;20035;-86
2023/05/19 03:36:06;;;;;;;8.25;3.80;;;8.20;99.90;;;;;;5114734;28;20177;-86
2023/05/19 03:38:32;;;;;;;13.52;4.28;;;8.20;99.90;;;;;;5114478;28;20031;-86
2023/05/19 03:40:57;;;;;;;12.40;4.15;;;8.10;99.90;;;;;;5114250;28;20035;-85
2023/05/19 03:43:23;;;;;;;10.60;3.67;;;8.10;99.90;;;;;;5114565;28;20067;-85
2023/05/19 03:45:49;;;;;;;9.95;3.38;;;8.10;99.90;;;;;;5114387;28;20043;-86
2023/05/19 03:48:14;;;;;;;8.60;3.60;;;8.00;99.90;;;;;;5114476;28;20040;-86
2023/05/19 03:50:41;;;;;;;9.18;3.22;;;8.00;99.90;;;;;;5095843;28;20114;-86
2023/05/19 03:53:07;;;;;;;9.73;3.53;;;8.00;99.90;;;;;;5114392;28;20039;-86
2023/05/19 03:55:32;;;;;;;9.23;3.83;;;7.90;99.90;;;;;;5114332;28;20476;-86
2023/05/19 03:57:58;;;;;;;9.52;3.45;;;7.90;99.90;;;;;;5113986;28;20035;-86
2023/05/19 04:00:23;;;;;;;10.52;3.65;;;7.90;99.90;;;;;;5113858;28;20497;-86
2023/05/19 04:02:50;;;;;;;8.13;2.92;;;7.90;99.90;;;;;;5114235;28;20042;-86
2023/05/19 04:05:15;;;;;;;8.88;2.90;;;7.90;99.90;;;;;;5114247;28;20050;-86
2023/05/19 04:07:41;;;;;;;7.40;2.97;;;7.90;99.90;;;;;;5113929;28;20032;-86
2023/05/19 04:10:07;;;;;;;7.65;2.75;;;7.90;99.90;;;;;;5113805;28;20122;-86
2023/05/19 04:12:33;;;;;;;11.80;3.88;;;7.90;99.90;;;;;;5114119;28;20123;-86
2023/05/19 04:14:59;;;;;;;8.23;3.08;;;7.90;99.90;;;;;;5114051;28;20050;-86
2023/05/19 04:17:25;;;;;;;8.43;3.25;;;7.90;99.90;;;;;;5113595;28;20157;-86
2023/05/19 04:19:54;;;;;;;9.55;3.95;;;7.90;99.90;;;;;;5113548;28;20043;-86
2023/05/19 04:22:20;;;;;;;8.85;2.92;;;7.90;99.90;;;;;;5113716;28;20110;-86
2023/05/19 04:24:46;;;;;;;10.13;3.60;;;7.80;99.90;;;;;;5113902;28;20476;-86
2023/05/19 04:27:12;;;;;;;8.52;3.60;;;7.90;99.90;;;;;;5113828;28;20048;-86
2023/05/19 04:29:39;;;;;;;12.88;4.40;;;7.90;99.90;;;;;;5113302;28;20047;-86
2023/05/19 04:32:05;;;;;;;10.60;4.07;;;7.90;99.90;;;;;;5112531;28;20130;-86
2023/05/19 04:34:32;;;;;;;13.25;3.90;;;7.90;99.90;;;;;;5113554;28;20046;-86
2023/05/19 04:36:58;;;;;;;9.52;3.53;;;8.00;99.90;;;;;;5113416;28;20039;-86
2023/05/19 04:39:23;;;;;;;13.30;4.00;;;8.00;99.90;;;;;;5112013;28;20096;-86
2023/05/19 04:41:49;;;;;;;11.30;4.57;;;8.00;99.90;;;;;;5113325;28;20042;-86
2023/05/19 04:44:16;;;;;;;10.77;4.40;;;8.10;99.90;;;;;;5112894;28;20082;-86
2023/05/19 04:46:43;;;;;;;14.75;4.70;;;8.20;99.90;;;;;;5113356;28;20040;-86
2023/05/19 04:49:11;;;;;;;12.38;4.70;;;8.20;99.90;;;;;;5113210;28;20050;-86
2023/05/19 04:51:40;;;;;;;17.17;5.43;;;8.30;99.90;;;;;;5112905;28;20047;-86
2023/05/19 04:54:06;;;;;;;11.77;4.63;;;8.40;99.90;;;;;;5113357;28;20047;-86
2023/05/19 04:56:32;;;;;;;14.98;5.60;;;8.50;99.90;;;;;;5113257;28;20040;-86
2023/05/19 04:58:58;;;;;;;13.55;5.13;;;8.60;99.90;;;;;;5112710;28;20047;-86
2023/05/19 05:01:24;;;;;;;14.85;5.30;;;8.60;99.90;;;;;;5112642;28;20052;-86
2023/05/19 05:03:53;;;;;;;13.88;5.55;;;8.70;99.90;;;;;;5112899;28;20040;-86
2023/05/19 05:06:22;;;;;;;11.07;4.78;;;8.70;99.90;;;;;;5113115;28;20067;-86
2023/05/19 05:08:48;;;;;;;12.60;5.18;;;8.80;99.90;;;;;;5111760;28;20042;-85
2023/05/19 05:11:14;;;;;;;13.52;5.00;;;8.90;99.90;;;;;;5112477;28;20036;-86
2023/05/19 05:13:40;;;;;;;16.75;5.28;;;9.00;99.90;;;;;;5112876;28;20039;-86
2023/05/19 05:16:07;;;;;;;12.02;5.28;;;9.00;99.90;;;;;;5112681;28;20031;-86
2023/05/19 05:18:33;;;;;;;11.73;4.65;;;9.10;99.90;;;;;;5111556;28;20614;-86
2023/05/19 05:21:00;;;;;;;14.93;5.20;;;9.20;99.90;;;;;;5112523;28;20043;-86
2023/05/19 05:23:26;;;;;;;12.75;4.97;;;9.20;99.90;;;;;;5112783;28;20040;-86
2023/05/19 05:25:52;;;;;;;13.13;5.47;;;9.30;99.90;;;;;;5112696;28;20088;-86
2023/05/19 05:28:17;;;;;;;11.00;4.97;;;9.40;99.90;;;;;;5112549;28;20067;-86
2023/05/19 05:30:43;;;;;;;11.57;5.35;;;9.50;99.90;;;;;;5112076;28;20039;-86
2023/05/19 05:33:09;;;;;;;12.90;4.85;;;9.50;99.90;;;;;;5112491;28;20100;-86
2023/05/19 05:35:35;;;;;;;14.43;5.40;;;9.60;99.90;;;;;;5111397;28;20071;-86
2023/05/19 05:38:01;;;;;;;14.43;5.78;;;9.70;99.90;;;;;;5112453;28;20488;-86
2023/05/19 05:40:27;;;;;;;11.93;4.85;;;9.80;99.90;;;;;;5112152;28;20109;-85
2023/05/19 05:42:54;;;;;;;16.15;5.43;;;9.80;99.90;;;;;;5112411;28;20484;-86
2023/05/19 05:45:21;;;;;;;10.07;4.57;;;9.90;99.90;;;;;;5112100;28;20031;-86
2023/05/19 05:47:47;;;;;;;14.40;5.13;;;10.00;99.90;;;;;;5112419;28;20042;-86
2023/05/19 05:50:13;;;;;;;11.15;4.78;;;10.00;99.90;;;;;;5111927;28;20039;-86
2023/05/19 05:52:41;;;;;;;10.88;4.45;;;10.10;99.90;;;;;;5112382;28;20050;-86
2023/05/19 05:55:07;;;;;;;11.57;4.22;;;10.10;99.90;;;;;;5112110;28;20047;-86
2023/05/19 05:57:36;;;;;;;13.75;4.18;;;10.20;99.90;;;;;;5111116;28;20046;-86
2023/05/19 06:00:04;;;;;;;10.63;4.88;;;10.40;99.90;;;;;;5111628;28;20047;-85
2023/05/19 06:02:30;;;;;;;11.93;4.13;;;10.50;99.90;;;;;;5112334;28;20088;-86
2023/05/19 06:04:56;;;;;;;11.00;4.30;;;10.60;99.90;;;;;;5111025;28;20475;-86
2023/05/19 06:07:21;;;;;;;11.82;3.75;;;10.70;99.90;;;;;;5112148;28;20044;-86
2023/05/19 06:09:47;;;;;;;12.00;4.10;;;10.70;99.90;;;;;;5111689;28;20184;-86
2023/05/19 06:12:12;;;;;;;9.93;3.30;;;10.90;99.90;;;;;;5111954;28;20048;-86
2023/05/19 06:14:38;;;;;;;8.43;3.83;;;10.90;99.90;;;;;;5110604;28;20118;-86
2023/05/19 06:17:04;;;;;;;10.70;3.78;;;11.00;99.90;;;;;;5110952;28;20038;-86
2023/05/19 06:19:29;;;;;;;14.90;3.90;;;11.10;99.90;;;;;;5111167;28;20105;-86
2023/05/19 06:21:55;;;;;;;7.57;3.08;;;11.20;99.90;;;;;;5112019;28;20028;-86
2023/05/19 06:24:20;;;;;;;10.18;3.50;;;11.30;99.90;;;;;;5111870;28;20046;-86
2023/05/19 06:26:46;;;;;;;12.20;3.55;;;11.40;99.90;;;;;;5112081;28;20046;-86
2023/05/19 06:29:12;;;;;;;8.43;3.13;;;11.50;99.90;;;;;;5093556;28;20071;-86
2023/05/19 06:31:37;;;;;;;8.68;3.20;;;11.60;99.90;;;;;;5111628;28;20035;-86
2023/05/19 06:34:03;;;;;;;8.77;3.45;;;11.60;99.90;;;;;;5111912;28;20080;-86
2023/05/19 06:36:29;;;;;;;9.98;3.50;;;11.70;99.90;;;;;;5111908;28;20043;-86
2023/05/19 06:38:55;;;;;;;10.90;4.07;;;11.80;99.90;;;;;;5111279;28;20038;-86
2023/05/19 06:41:20;;;;;;;11.05;3.80;;;11.90;99.90;;;;;;5111463;28;20044;-86
2023/05/19 06:43:46;;;;;;;7.50;3.40;;;12.00;99.90;;;;;;5110480;28;20055;-86
2023/05/19 06:46:11;;;;;;;15.85;3.80;;;12.00;99.90;;;;;;5111927;28;20547;-86
2023/05/19 06:48:37;;;;;;;9.52;3.22;;;12.10;99.90;;;;;;5111638;28;20039;-86
2023/05/19 06:51:03;;;;;;;8.25;3.00;;;12.20;99.90;;;;;;5110250;28;20050;-87
2023/05/19 06:53:30;;;;;;;9.30;3.25;;;12.30;99.90;;;;;;5110242;28;20416;-86
2023/05/19 06:55:55;;;;;;;9.82;3.60;;;12.40;99.90;;;;;;5111516;28;20039;-86
2023/05/19 06:58:21;;;;;;;10.60;3.40;;;12.40;99.90;;;;;;5110463;28;20382;-86
2023/05/19 07:00:46;;;;;;;11.02;2.95;;;12.50;99.90;;;;;;5092972;28;20043;-87
2023/05/19 07:03:12;;;;;;;11.70;4.40;;;12.60;99.90;;;;;;5111721;28;20036;-86
2023/05/19 07:05:38;;;;;;;13.45;4.63;;;12.70;99.90;;;;;;5110295;28;20046;-87
2023/05/19 07:08:03;;;;;;;9.43;3.10;;;12.90;99.90;;;;;;5095350;28;20028;-87
2023/05/19 07:10:29;;;;;;;7.88;2.85;;;13.00;99.90;;;;;;5113539;28;20505;-87
2023/05/19 07:12:55;;;;;;;11.82;3.45;;;13.00;99.90;;;;;;5115126;28;20491;-87
2023/05/19 07:15:20;;;;;;;11.00;3.50;;;13.10;99.90;;;;;;5115272;28;20089;-87
2023/05/19 07:17:46;;;;;;;8.73;3.75;;;13.20;99.90;;;;;;5115000;28;20028;-87
2023/05/19 07:20:12;;;;;;;10.63;4.25;;;13.30;99.90;;;;;;5113253;28;20489;-86
2023/05/19 07:22:38;;;;;;;11.20;2.92;;;13.40;98.90;;;;;;5111975;28;20044;-86
2023/05/19 07:25:07;;;;;;;11.93;4.00;;;13.40;98.10;;;;;;5111727;28;20046;-87
2023/05/19 07:27:33;;;;;;;12.40;4.40;;;13.60;96.70;;;;;;5113136;28;20043;-87
2023/05/19 07:29:58;;;;;;;9.75;2.65;;;13.80;95.80;;;;;;5094523;28;20045;-86
2023/05/19 07:32:24;;;;;;;8.88;2.83;;;13.80;95.50;;;;;;5111672;28;20043;-86
2023/05/19 07:34:50;;;;;;;11.85;3.45;;;13.90;95.60;;;;;;5113235;28;20088;-86
2023/05/19 07:37:15;;;;;;;13.30;4.20;;;13.90;95.70;;;;;;5112022;28;20043;-86
2023/05/19 07:39:41;;;;;;;11.73;3.65;;;14.10;93.00;;;;;;5112029;28;20119;-86
2023/05/19 07:42:07;;;;;;;9.88;2.92;;;14.20;91.50;;;;;;5112428;28;20075;-87
2023/05/19 07:44:33;;;;;;;9.30;3.00;;;14.20;91.50;;;;;;5113139;28;20489;-86
2023/05/19 07:46:59;;;;;;;11.85;3.17;;;14.30;91.60;;;;;;5112071;28;20235;-86
2023/05/19 07:49:25;;;;;;;10.70;4.28;;;14.30;90.90;;;;;;5112231;28;20054;-86
2023/05/19 07:51:51;;;;;;;10.25;3.47;;;14.40;87.20;;;;;;5114243;28;20401;-86
2023/05/19 07:54:17;;;;;;;9.27;2.45;;;14.60;85.40;;;;;;5113022;28;20047;-87
2023/05/19 07:56:42;;;;;;;5.93;2.28;;;14.60;85.70;;;;;;5114554;28;20043;-86
2023/05/19 07:59:08;;;;;;;7.43;2.35;;;14.60;85.20;;;;;;5114302;28;20074;-86
2023/05/19 08:01:34;;;;;;;7.03;2.30;;;14.70;85.10;;;;;;5112714;28;20454;-86
2023/05/19 08:03:59;;;;;;;10.88;3.00;;;14.80;85.50;;;;;;5113050;28;20040;-86
2023/05/19 08:06:25;;;;;;;10.45;2.97;;;15.00;84.80;;;;;;5114070;28;20031;-86
2023/05/19 08:08:51;;;;;;;9.45;2.63;;;15.10;81.50;;;;;;5113122;28;20035;-86
2023/05/19 08:11:16;;;;;;;8.70;2.75;;;15.10;81.40;;;;;;5112885;28;20043;-86
2023/05/19 08:13:42;;;;;;;9.52;2.20;;;15.20;78.80;;;;;;5113928;28;20511;-86
2023/05/19 08:16:08;;;;;;;11.73;2.90;;;15.30;79.40;;;;;;5114087;28;20035;-86
2023/05/19 08:18:33;;;;;;;11.18;3.08;;;15.40;77.50;;;;;;5113309;28;20040;-86
2023/05/19 08:21:00;;;;;;;9.82;3.10;;;15.50;77.10;;;;;;5113116;28;20101;-86
2023/05/19 08:23:25;;;;;;;9.02;2.60;;;15.60;76.10;;;;;;5113750;28;20046;-86
2023/05/19 08:25:51;;;;;;;9.75;3.40;;;15.70;76.20;;;;;;5113740;28;20122;-86
2023/05/19 08:28:16;;;;;;;9.38;2.78;;;15.70;75.30;;;;;;5113741;28;20168;-86
2023/05/19 08:30:42;;;;;;;9.65;3.63;;;15.80;75.70;;;;;;5112334;28;20119;-86
2023/05/19 08:33:08;;;;;;;11.60;3.45;;;15.80;75.10;;;;;;5113624;28;20139;-86
2023/05/19 08:35:33;;;;;;;10.38;3.30;;;15.90;75.10;;;;;;5119007;27;20035;-86
2023/05/19 08:37:59;;;;;;;12.57;3.30;;;16.00;74.30;;;;;;5105957;27;20122;-86
2023/05/19 08:40:27;;;;;;;9.30;2.78;;;16.00;72.80;;;;;;5122895;27;20455;-86
2023/05/19 08:42:53;;;;;;;9.88;2.60;;;16.10;72.20;;;;;;5103827;27;20043;-86
2023/05/19 08:45:19;;;;;;;9.50;3.15;;;16.20;72.00;;;;;;5106034;27;20104;-86
2023/05/19 08:47:50;;;;;;;7.72;2.65;;;16.30;72.20;;;;;;5123028;27;20036;-86
2023/05/19 08:50:29;;;;;;;10.02;2.75;;;16.30;71.90;;;;;;5121555;27;20046;-86
2023/05/19 08:53:21;;;;;;;11.68;3.38;;;16.40;71.80;;;;;;5122165;27;20374;-86
2023/05/19 08:56:13;;;;;;;9.10;2.75;;;16.50;70.70;;;;;;5121393;27;20126;-86
2023/05/19 08:58:42;;;;;;;10.77;3.10;;;16.60;70.20;;;;;;5057825;28;20118;-86
2023/05/19 09:01:09;;;;;;;12.32;3.05;;;16.60;70.40;;;;;;5092341;28;20555;-86
2023/05/19 09:03:36;;;;;;;10.02;2.55;;;16.70;69.80;;;;;;5092814;28;20040;-87
2023/05/19 09:06:05;;;;;;;10.57;2.95;;;16.80;69.70;;;;;;5092514;28;20031;-86
2023/05/19 09:08:31;;;;;;;11.93;3.50;;;16.90;68.30;;;;;;5097092;27;20035;-86
2023/05/19 09:10:57;;;;;;;9.43;2.45;;;16.90;68.10;;;;;;5121629;27;20038;-87
2023/05/19 09:13:22;;;;;;;9.65;3.42;;;17.00;68.30;;;;;;5122634;27;20488;-86
2023/05/19 09:15:51;;;;;;;9.32;2.38;;;17.00;67.90;;;;;;5118131;27;20601;-87
2023/05/19 09:18:17;;;;;;;10.68;2.80;;;17.10;67.70;;;;;;5112779;28;20070;-87
2023/05/19 09:20:44;;;;;;;10.25;2.67;;;17.20;67.60;;;;;;5122686;27;20092;-87
2023/05/19 09:23:14;;;;;;;10.75;2.92;;;17.30;67.70;;;;;;5128291;27;20023;-86
2023/05/19 09:25:50;;;;;;;10.40;2.97;;;17.40;66.80;;;;;;5123261;27;20455;-86
2023/05/19 09:28:30;;;;;;;9.73;2.88;;;17.40;65.90;;;;;;5123104;27;20036;-86
2023/05/19 09:31:00;;;;;;;9.32;2.78;;;17.50;66.90;;;;;;5118996;27;20531;-87
2023/05/19 09:33:27;;;;;;;7.93;2.50;;;17.60;66.10;;;;;;5112567;28;20048;-86
2023/05/19 09:35:55;;;;;;;12.23;3.92;;;17.70;65.80;;;;;;5112505;28;20553;-87
2023/05/19 09:38:21;;;;;;;11.02;3.35;;;17.70;64.80;;;;;;5112210;28;20131;-86
2023/05/19 09:40:51;;;;;;;11.05;3.00;;;17.80;64.60;;;;;;5081630;28;20047;-86
2023/05/19 09:43:16;;;;;;;10.27;3.20;;;17.90;65.10;;;;;;5100302;27;20558;-86
2023/05/19 09:45:42;;;;;;;7.32;2.42;;;17.90;64.40;;;;;;5122510;27;20027;-86
2023/05/19 09:48:08;;;;;;;8.50;2.58;;;18.00;64.50;;;;;;5122713;28;20031;-86
2023/05/19 09:50:34;;;;;;;9.40;2.50;;;18.10;64.60;;;;;;5102857;28;20373;-87
2023/05/19 09:53:01;;;;;;;11.18;2.65;;;18.20;63.80;;;;;;5087454;28;20047;-86
2023/05/19 09:55:28;;;;;;;10.27;2.67;;;18.30;65.70;;;;;;5104056;28;20126;-87
2023/05/19 09:57:56;;;;;;;8.50;2.50;;;18.40;65.10;;;;;;5120808;27;20518;-86
2023/05/19 10:00:22;;;;;;;8.07;2.45;;;18.50;64.20;;;;;;5121974;27;20039;-86
2023/05/19 10:02:49;;;;;;;10.40;2.60;;;18.60;63.00;;;;;;5122560;28;20073;-87
2023/05/19 10:05:19;;;;;;;9.60;2.80;;;18.60;63.50;;;;;;5120709;28;20035;-87
2023/05/19 10:07:50;;;;;;;8.52;2.40;;;18.70;63.10;;;;;;5122009;28;20037;-87
2023/05/19 10:10:16;;;;;;;8.90;2.65;;;18.70;63.60;;;;;;5122657;28;20089;-87
2023/05/19 10:12:42;;;;;;;11.02;3.55;;;18.90;63.60;;;;;;5121660;28;20034;-87
2023/05/19 10:15:18;;;;;;;9.43;2.90;;;19.00;63.70;;;;;;5121380;28;20035;-87
2023/05/19 10:17:44;;;;;;;9.73;2.60;;;19.10;63.60;;;;;;5102016;28;20047;-86
2023/05/19 10:20:14;;;;;;;9.27;2.40;;;19.20;62.80;;;;;;5115322;28;20039;-87
2023/05/19 10:22:42;;;;;;;10.32;2.70;;;19.30;62.50;;;;;;5112174;28;20080;-87
2023/05/19 10:25:09;;;;;;;10.05;2.40;;;19.30;62.20;;;;;;5116082;28;20035;-86
2023/05/19 10:27:40;;;;;;;8.90;2.58;;;19.40;62.30;;;;;;5115530;28;20115;-86
2023/05/19 10:30:22;;;;;;;10.80;2.65;;;19.30;62.10;;;;;;5111675;28;20039;-86
2023/05/19 10:32:48;;;;;;;8.53;2.50;;;19.30;63.30;;;;;;5112070;28;20050;-87
2023/05/19 10:35:37;;;;;;;9.85;2.45;;;19.30;62.70;;;;;;5111988;28;20051;-87
2023/05/19 10:38:22;;;;;;;9.52;2.28;;;19.30;60.90;;;;;;5111703;28;20110;-86
2023/05/19 10:41:10;;;;;;;11.52;2.60;;;19.30;60.50;;;;;;5111278;28;20039;-86
2023/05/19 10:44:05;;;;;;;8.57;2.25;;;19.50;60.70;;;;;;5096309;28;20094;-87
2023/05/19 10:46:31;;;;;;;9.90;2.63;;;19.60;60.80;;;;;;5081011;28;20051;-86
2023/05/19 10:48:56;;;;;;;9.75;3.00;;;19.50;60.10;;;;;;5115422;28;20477;-86
2023/05/19 10:51:32;;;;;;;9.05;2.67;;;19.60;59.50;;;;;;5115222;28;20039;-86
2023/05/19 10:54:01;;;;;;;10.27;2.90;;;19.60;59.90;;;;;;5097439;28;20044;-87
2023/05/19 10:56:29;;;;;;;13.70;3.63;;;19.80;59.80;;;;;;5115668;28;20252;-86
2023/05/19 10:58:55;;;;;;;9.75;2.17;;;19.90;60.00;;;;;;5115387;28;20118;-86
2023/05/19 11:01:24;;;;;;;10.10;2.38;;;20.00;59.10;;;;;;5115104;28;20465;-87
2023/05/19 11:03:55;;;;;;;8.20;2.08;;;20.10;59.00;;;;;;5097030;28;20111;-87
2023/05/19 11:06:32;;;;;;;7.85;2.20;;;20.20;57.80;;;;;;5115467;28;20111;-87
2023/05/19 11:09:00;;;;;;;8.57;2.28;;;20.30;57.90;;;;;;5097144;28;20075;-87
2023/05/19 11:11:41;;;;;;;10.20;2.38;;;20.50;57.60;;;;;;5114861;28;20035;-86
2023/05/19 11:14:10;;;;;;;8.75;2.55;;;20.50;57.00;;;;;;5115045;28;20076;-87
2023/05/19 11:16:35;;;;;;;9.45;2.40;;;20.60;57.80;;;;;;5115381;28;20401;-87
2023/05/19 11:19:01;;;;;;;8.38;2.22;;;20.70;57.00;;;;;;5096859;28;20511;-87
2023/05/19 11:21:47;;;;;;;7.63;2.28;;;20.80;55.80;;;;;;5114841;28;20396;-86
2023/05/19 11:24:33;;;;;;;8.88;2.60;;;20.80;55.10;;;;;;5096577;28;20500;-87
2023/05/19 11:27:16;;;;;;;7.22;2.10;;;20.80;57.00;;;;;;5115172;28;20090;-87
2023/05/19 11:29:41;;;;;;;8.95;2.85;;;21.00;56.60;;;;;;5114789;28;20039;-87
2023/05/19 11:32:08;;;;;;;10.30;2.53;;;21.10;56.80;;;;;;5114813;28;20089;-87
2023/05/19 11:34:34;;;;;;;9.25;2.50;;;21.30;55.90;;;;;;5114781;28;20043;-87
2023/05/19 11:37:00;;;;;;;9.20;2.10;;;21.30;55.40;;;;;;5114482;28;20040;-87
2023/05/19 11:39:27;;;;;;;7.43;2.20;;;21.40;55.50;;;;;;5114304;28;20043;-87
2023/05/19 11:41:54;;;;;;;7.85;2.40;;;21.40;55.00;;;;;;5114643;28;20047;-87
2023/05/19 11:44:20;;;;;;;8.32;2.70;;;21.50;54.40;;;;;;5114541;28;20412;-87
2023/05/19 11:46:45;;;;;;;8.90;2.00;;;21.50;53.70;;;;;;5114622;28;20481;-87
2023/05/19 11:49:12;;;;;;;8.20;2.53;;;21.60;54.00;;;;;;5114235;28;20038;-87
2023/05/19 11:51:38;;;;;;;8.85;2.40;;;21.70;54.30;;;;;;5114072;28;20501;-87
2023/05/19 11:54:03;;;;;;;9.23;2.22;;;21.70;54.20;;;;;;5104019;27;20027;-87
2023/05/19 11:56:39;;;;;;;11.25;2.47;;;21.80;54.10;;;;;;5124606;27;20036;-87
2023/05/19 11:59:05;;;;;;;10.63;2.70;;;21.90;53.50;;;;;;5103324;28;20037;-87
2023/05/19 12:01:31;;;;;;;8.43;2.20;;;22.00;53.00;;;;;;5092730;28;20043;-87
2023/05/19 12:03:57;;;;;;;9.88;2.53;;;22.10;53.20;;;;;;5095885;28;20032;-88
2023/05/19 12:06:25;;;;;;;9.75;2.47;;;22.20;52.90;;;;;;5096093;28;20028;-87
2023/05/19 12:08:51;;;;;;;9.57;2.55;;;22.30;53.90;;;;;;5114056;28;20035;-87
2023/05/19 12:11:18;;;;;;;7.78;2.45;;;22.40;52.70;;;;;;5098344;27;20103;-87
2023/05/19 12:13:43;;;;;;;8.32;2.40;;;22.40;52.10;;;;;;5114070;28;20031;-87
2023/05/19 12:16:09;;;;;;;9.52;2.88;;;22.40;52.50;;;;;;5096010;28;20511;-87
2023/05/19 12:18:39;;;;;;;10.57;2.50;;;22.60;53.30;;;;;;5113692;28;20525;-87
2023/05/19 12:21:04;;;;;;;10.07;2.80;;;22.70;52.70;;;;;;5078367;28;20039;-87
2023/05/19 12:23:31;;;;;;;8.20;2.35;;;22.60;51.30;;;;;;5095775;28;20167;-87
2023/05/19 12:25:58;;;;;;;9.25;2.45;;;22.60;52.40;;;;;;5113903;28;20040;-87
2023/05/19 12:28:24;;;;;;;8.77;2.28;;;22.70;52.80;;;;;;5113620;28;20523;-87
2023/05/19 12:30:51;;;;;;;10.02;2.55;;;22.90;54.00;;;;;;5078323;28;20075;-87
2023/05/19 12:33:18;;;;;;;9.07;2.88;;;23.00;52.30;;;;;;5113473;28;20558;-87
2023/05/19 12:35:45;;;;;;;8.68;2.50;;;23.00;51.60;;;;;;5113850;28;20368;-87
2023/05/19 12:38:11;;;;;;;9.60;2.50;;;23.00;53.50;;;;;;5095258;28;20417;-87
2023/05/19 12:40:38;;;;;;;8.13;2.47;;;23.10;53.00;;;;;;5113291;28;20554;-87
2023/05/19 12:43:04;;;;;;;8.55;2.42;;;23.00;51.20;;;;;;5113428;28;20050;-87
2023/05/19 12:45:34;;;;;;;8.35;2.35;;;22.90;50.90;;;;;;5113422;28;20057;-87
2023/05/19 12:48:04;;;;;;;8.52;2.40;;;22.80;50.60;;;;;;5113740;28;20073;-87